Terminal Aerodrome Forecast
Issued by NWS

Home | Current Version | Previous Version | Text Only | Print | Product List | Glossary On
Versions: 1 2 3 4 5 6 7 8 9 10 11 12 13 14 15 16 17 18 19 20 21 22 23 24 25 26 27 28 29 30 31
000
FTUS41 KCTP 290000 RRA
TAFBFD
TAF
KBFD 290000Z 2900/2924 VRB05KT P6SM VCTS BKN040CB
      TEMPO 2900/2901 5SM -TSRA BKN040CB
     FM290100 VRB03KT P6SM BKN040
     FM290600 00000KT 4SM BR BKN250
     FM291400 23005KT P6SM -SHRA SCT040
     FM291600 23005KT P6SM VCTS BKN040CB=

USA.gov is the U.S. government's official web portal to all federal, state and local government web resources and services.